Time;durP1;ratioP1;P1;durP2;ratioP2;P2;SDS_P1;SDS_P2;PMS_P1;PMS_P2;Temp;Humidity;BMP_temperature;BMP_pressure;BME280_temperature;BME280_humidity;BME280_pressure;Samples;Min_cycle;Max_cycle;Signal;HPM_P1;HPM_P2
2023/10/10 00:00:35;;;;;;;26.05;15.10;;;;;;;13.57;100.00;101805.09;5082051;28;20029;-66
2023/10/10 00:03:05;;;;;;;31.02;16.73;;;;;;;13.55;100.00;101813.06;5078673;28;20043;-66
2023/10/10 00:05:36;;;;;;;32.03;15.60;;;;;;;13.55;100.00;101807.06;5078423;28;20410;-67
2023/10/10 00:08:02;;;;;;;26.33;15.75;;;;;;;13.54;100.00;101811.44;5074666;28;20038;-67
2023/10/10 00:10:30;;;;;;;32.35;16.17;;;;;;;13.55;100.00;101812.25;5061568;28;20051;-67
2023/10/10 00:12:56;;;;;;;27.98;15.93;;;;;;;13.54;100.00;101810.63;5076397;28;20544;-67
2023/10/10 00:15:32;;;;;;;31.95;15.75;;;;;;;13.50;100.00;101807.47;5077795;28;20025;-66
2023/10/10 00:18:02;;;;;;;30.83;16.42;;;;;;;13.47;100.00;101796.53;5075668;28;20097;-67
2023/10/10 00:20:35;;;;;;;28.75;16.88;;;;;;;13.42;100.00;101799.63;5074669;28;20123;-66
2023/10/10 00:23:04;;;;;;;28.98;15.63;;;;;;;13.40;100.00;101797.16;5077452;28;20078;-67
2023/10/10 00:25:32;;;;;;;32.88;16.77;;;;;;;13.36;100.00;101803.63;5075976;28;20074;-66
2023/10/10 00:28:17;;;;;;;29.23;15.88;;;;;;;13.34;100.00;101805.56;5073520;28;20440;-67
2023/10/10 00:30:44;;;;;;;29.92;16.80;;;;;;;13.35;100.00;101798.56;5073485;28;20032;-67
2023/10/10 00:33:11;;;;;;;31.00;16.83;;;;;;;13.35;100.00;101799.38;5073534;28;20491;-67
2023/10/10 00:35:38;;;;;;;27.67;16.92;;;;;;;13.34;100.00;101800.38;5074518;28;20092;-66
2023/10/10 00:38:05;;;;;;;27.08;16.25;;;;;;;13.30;100.00;101790.34;5076881;28;20060;-67
2023/10/10 00:40:31;;;;;;;31.83;17.67;;;;;;;13.25;100.00;101798.63;5078815;28;20028;-67
2023/10/10 00:42:58;;;;;;;34.45;18.30;;;;;;;13.21;100.00;101787.69;5062139;28;20074;-67
2023/10/10 00:45:33;;;;;;;29.52;17.65;;;;;;;13.18;100.00;101793.19;5076286;28;20036;-67
2023/10/10 00:48:00;;;;;;;31.52;16.35;;;;;;;13.15;100.00;101792.69;5079402;28;20055;-67
2023/10/10 00:50:27;;;;;;;30.45;17.38;;;;;;;13.12;100.00;101790.38;5077895;28;20032;-67
2023/10/10 00:52:53;;;;;;;30.65;16.95;;;;;;;13.06;100.00;101791.78;5075421;28;20044;-67
2023/10/10 00:55:24;;;;;;;35.45;18.10;;;;;;;13.00;100.00;101793.19;5077401;28;20047;-66
2023/10/10 00:57:55;;;;;;;30.55;17.33;;;;;;;12.98;100.00;101791.72;5080274;28;20788;-67
2023/10/10 01:00:25;;;;;;;32.53;18.02;;;;;;;12.97;100.00;101796.06;5076730;28;20047;-66
2023/10/10 01:02:56;;;;;;;32.22;16.67;;;;;;;12.96;100.00;101791.00;5061012;28;20064;-67
2023/10/10 01:05:23;;;;;;;32.10;18.45;;;;;;;12.95;100.00;101789.38;5076768;28;20398;-66
2023/10/10 01:07:51;;;;;;;31.58;18.48;;;;;;;12.95;100.00;101787.59;5077500;28;20094;-67
2023/10/10 01:10:17;;;;;;;36.53;18.05;;;;;;;12.95;100.00;101786.78;5079749;28;22279;-66
2023/10/10 01:12:46;;;;;;;38.92;19.23;;;;;;;12.92;100.00;101781.88;5078611;28;20398;-67
2023/10/10 01:15:25;;;;;;;33.33;19.15;;;;;;;12.91;100.00;101769.84;5080110;28;20032;-67
2023/10/10 01:17:51;;;;;;;35.05;19.25;;;;;;;12.89;100.00;101777.78;5080220;28;20118;-67
2023/10/10 01:20:34;;;;;;;40.97;21.52;;;;;;;12.87;100.00;101777.13;5094924;28;20118;-65
2023/10/10 01:23:03;;;;;;;38.80;20.03;;;;;;;12.86;100.00;101772.84;5080061;28;20036;-67
2023/10/10 01:28:05;;;;;;;34.28;18.30;;;;;;;12.83;100.00;101775.78;5083997;28;20062;-67
2023/10/10 01:30:48;;;;;;;30.00;18.10;;;;;;;12.78;100.00;101771.00;5083302;28;20033;-66
2023/10/10 01:33:15;;;;;;;34.45;18.17;;;;;;;12.74;100.00;101766.25;5081993;28;20032;-67
2023/10/10 01:35:41;;;;;;;32.65;18.52;;;;;;;12.71;100.00;101771.72;5082743;28;20043;-67
2023/10/10 01:38:45;;;;;;;34.30;19.60;;;;;;;12.70;100.00;101773.53;5081892;28;20040;-67
2023/10/10 01:41:24;;;;;;;36.17;19.55;;;;;;;12.69;100.00;101765.84;5079696;28;20032;-67
2023/10/10 01:43:53;;;;;;;32.83;19.52;;;;;;;12.67;100.00;101763.38;5083395;28;20049;-66
2023/10/10 01:46:27;;;;;;;35.17;18.77;;;;;;;12.66;100.00;101759.16;5082018;28;20504;-66
2023/10/10 01:48:57;;;;;;;32.22;18.88;;;;;;;12.64;100.00;101768.91;5094882;28;20044;-67
2023/10/10 01:51:28;;;;;;;33.70;18.15;;;;;;;12.62;100.00;101765.59;5065557;28;20089;-66
2023/10/10 01:53:57;;;;;;;34.75;19.35;;;;;;;12.62;100.00;101760.41;5077247;28;20514;-67
2023/10/10 01:56:24;;;;;;;35.75;19.88;;;;;;;12.60;100.00;101755.38;5079391;28;20047;-66
2023/10/10 01:58:53;;;;;;;33.33;19.27;;;;;;;12.59;100.00;101753.72;5081712;28;20523;-67
2023/10/10 02:01:20;;;;;;;35.50;18.63;;;;;;;12.59;100.00;101755.50;5064994;28;20642;-67
2023/10/10 02:03:47;;;;;;;32.05;18.88;;;;;;;12.59;100.00;101751.13;5079162;28;20036;-67
2023/10/10 02:06:21;;;;;;;34.72;20.05;;;;;;;12.59;100.00;101748.50;5082486;28;20089;-67
2023/10/10 02:08:51;;;;;;;35.80;20.35;;;;;;;12.59;100.00;101745.91;5078976;28;20036;-67
2023/10/10 02:11:20;;;;;;;36.05;19.25;;;;;;;12.60;100.00;101741.53;5080236;28;20032;-67
2023/10/10 02:13:50;;;;;;;31.83;18.70;;;;;;;12.60;100.00;101736.31;5080936;28;20116;-66
2023/10/10 02:16:23;;;;;;;34.75;20.00;;;;;;;12.60;100.00;101734.56;5081679;28;20122;-67
2023/10/10 02:18:52;;;;;;;33.42;18.77;;;;;;;12.58;100.00;101744.28;5079887;28;20494;-67
2023/10/10 02:21:31;;;;;;;32.40;18.00;;;;;;;12.51;100.00;101738.03;5063653;28;20097;-66
2023/10/10 02:24:15;;;;;;;31.73;19.13;;;;;;;12.43;100.00;101743.13;5081804;28;20075;-67
2023/10/10 02:26:51;;;;;;;34.40;18.95;;;;;;;12.36;100.00;101731.69;5081268;28;20040;-67
2023/10/10 02:29:18;;;;;;;31.65;18.27;;;;;;;12.33;100.00;101730.16;5077674;28;20120;-67
2023/10/10 02:31:55;;;;;;;32.70;18.27;;;;;;;12.33;100.00;101729.38;5085274;28;20729;-67
2023/10/10 02:34:21;;;;;;;32.00;18.65;;;;;;;12.33;100.00;101724.16;5080372;28;20035;-67
2023/10/10 02:37:05;;;;;;;36.55;20.23;;;;;;;12.36;100.00;101721.28;5081304;28;20051;-67
2023/10/10 02:39:32;;;;;;;37.60;19.27;;;;;;;12.35;100.00;101715.25;5097256;28;20059;-67
2023/10/10 02:42:03;;;;;;;32.78;19.17;;;;;;;12.29;100.00;101710.63;5077511;28;20024;-67
2023/10/10 02:47:00;;;;;;;32.72;18.25;;;;;;;12.24;100.00;101711.06;5081630;28;21548;-67
2023/10/10 02:51:55;;;;;;;36.28;19.05;;;;;;;12.22;100.00;101717.34;5063391;28;20039;-67
2023/10/10 02:54:34;;;;;;;31.15;18.30;;;;;;;12.21;100.00;101713.94;5049172;28;20110;-67
2023/10/10 02:59:59;;;;;;;36.20;18.65;;;;;;;12.20;100.00;101708.88;5064527;28;20047;-67
2023/10/10 03:02:29;;;;;;;30.33;17.95;;;;;;;12.20;100.00;101714.91;5068729;28;20663;-67
2023/10/10 03:07:30;;;;;;;30.52;17.80;;;;;;;12.20;100.00;101704.50;5067462;28;20047;-68
2023/10/10 03:12:36;;;;;;;31.92;18.63;;;;;;;12.17;100.00;101717.00;5058831;28;20059;-68
2023/10/10 03:15:15;;;;;;;31.90;17.23;;;;;;;12.11;100.00;101722.75;5065725;28;21161;-67
2023/10/10 03:17:52;;;;;;;33.83;18.45;;;;;;;12.07;100.00;101719.63;5064280;28;20108;-68
2023/10/10 03:20:38;;;;;;;32.63;18.02;;;;;;;12.03;100.00;101720.88;5063966;28;20478;-67
2023/10/10 03:26:04;;;;;;;30.15;17.85;;;;;;;12.04;100.00;101715.53;5064132;28;20017;-67
2023/10/10 03:28:34;;;;;;;30.70;17.27;;;;;;;12.05;100.00;101716.34;5047352;28;20031;-67
2023/10/10 03:31:07;;;;;;;34.75;19.90;;;;;;;12.02;100.00;101719.25;5065114;28;20111;-67
2023/10/10 05:25:13;;;;;;;38.70;19.45;;;;;;;11.78;100.00;101675.53;5080541;28;20096;-68
2023/10/10 05:27:42;;;;;;;38.20;20.00;;;;;;;11.78;100.00;101678.13;5057100;28;20036;-68
2023/10/10 05:30:23;;;;;;;41.22;21.25;;;;;;;11.81;100.00;101676.06;5067162;28;20020;-68
2023/10/10 05:33:02;;;;;;;35.13;18.73;;;;;;;11.78;100.00;101678.13;5065871;28;20050;-68
2023/10/10 05:35:47;;;;;;;46.53;23.17;;;;;;;11.78;100.00;101684.13;5084135;28;20039;-68
2023/10/10 05:38:15;;;;;;;36.83;19.73;;;;;;;11.78;100.00;101684.13;5061859;28;20033;-68
2023/10/10 05:40:43;;;;;;;41.58;19.65;;;;;;;11.77;100.00;101682.50;5086389;28;20031;-68
2023/10/10 05:43:14;;;;;;;33.17;17.30;;;;;;;11.76;100.00;101682.66;5068427;28;20144;-68
2023/10/10 05:45:40;;;;;;;32.35;18.15;;;;;;;11.76;100.00;101682.66;5085584;28;20028;-68
2023/10/10 05:48:05;;;;;;;32.22;17.52;;;;;;;11.74;100.00;101674.19;5064048;28;20528;-68
2023/10/10 05:50:35;;;;;;;31.30;17.23;;;;;;;11.74;100.00;101675.00;5065727;28;20032;-68
2023/10/10 05:53:03;;;;;;;32.92;17.10;;;;;;;11.73;100.00;101680.31;5084285;28;20582;-68
2023/10/10 05:55:29;;;;;;;33.00;17.95;;;;;;;11.71;100.00;101671.84;5083357;28;20051;-68
2023/10/10 05:57:57;;;;;;;36.33;18.25;;;;;;;11.70;100.00;101668.44;5063311;28;20514;-68
2023/10/10 06:00:27;;;;;;;28.90;16.33;;;;;;;11.68;100.00;101668.59;5084473;28;20023;-68
2023/10/10 06:02:52;;;;;;;30.95;15.63;;;;;;;11.67;100.00;101659.13;5080188;28;20190;-68
2023/10/10 06:05:18;;;;;;;33.85;16.30;;;;;;;11.67;100.00;101660.94;5065690;28;20043;-68
2023/10/10 06:07:44;;;;;;;32.70;17.02;;;;;;;11.67;100.00;101659.13;5049301;28;20035;-68
2023/10/10 06:10:16;;;;;;;31.52;17.55;;;;;;;11.69;100.00;101661.59;5081257;28;20032;-68
2023/10/10 06:12:48;;;;;;;31.50;16.90;;;;;;;11.69;100.00;101659.81;5064935;28;20097;-69
2023/10/10 06:15:18;;;;;;;32.60;17.87;;;;;;;11.69;100.00;101659.00;5086483;28;21017;-68
2023/10/10 06:17:51;;;;;;;31.92;16.77;;;;;;;11.69;100.00;101667.59;5051440;28;20040;-69
2023/10/10 06:20:21;;;;;;;31.77;16.75;;;;;;;11.70;100.00;101663.25;5053426;28;20035;-68
2023/10/10 06:22:49;;;;;;;30.38;15.38;;;;;;;11.73;100.00;101664.75;5063681;28;20126;-68
2023/10/10 06:25:17;;;;;;;33.53;17.50;;;;;;;11.75;100.00;101668.00;5085441;28;20493;-68
2023/10/10 06:27:46;;;;;;;36.78;16.95;;;;;;;11.76;100.00;101665.28;5081003;28;20063;-68
2023/10/10 06:30:17;;;;;;;31.20;16.65;;;;;;;11.80;100.00;101660.63;5068642;28;20947;-68
2023/10/10 06:32:48;;;;;;;28.17;15.07;;;;;;;11.80;100.00;101661.44;5070870;28;20036;-68
2023/10/10 06:35:27;;;;;;;40.63;19.05;;;;;;;11.89;100.00;101662.34;5086893;28;20474;-68
2023/10/10 06:37:53;;;;;;;36.83;16.75;;;;;;;11.92;100.00;101661.28;5087457;28;20044;-68
2023/10/10 06:40:25;;;;;;;35.63;16.83;;;;;;;11.96;100.00;101670.41;5070134;28;20035;-68
2023/10/10 06:42:56;;;;;;;33.53;17.55;;;;;;;11.98;100.00;101664.13;5052783;28;20040;-68
2023/10/10 06:45:25;;;;;;;31.48;16.67;;;;;;;12.02;100.00;101664.66;5081034;28;20439;-68
2023/10/10 06:47:52;;;;;;;37.80;16.98;;;;;;;12.04;100.00;101663.53;5084776;28;20036;-68
2023/10/10 06:50:24;;;;;;;42.28;17.48;;;;;;;12.11;100.00;101671.59;5082324;28;20046;-68
2023/10/10 06:52:52;;;;;;;33.90;16.45;;;;;;;12.19;100.00;101668.28;5080190;28;20048;-68
2023/10/10 06:55:22;;;;;;;31.05;16.38;;;;;;;12.23;100.00;101670.41;5065524;28;20126;-68
2023/10/10 06:58:01;;;;;;;28.88;14.88;;;;;;;12.31;100.00;101668.88;5065607;28;20494;-68
2023/10/10 07:00:32;;;;;;;32.20;15.38;;;;;;;12.38;100.00;101668.16;5066299;28;20517;-68
2023/10/10 07:02:58;;;;;;;30.58;15.40;;;;;;;12.45;100.00;101664.00;5066146;28;20432;-68
2023/10/10 07:05:27;;;;;;;36.22;17.23;;;;;;;12.55;100.00;101674.34;5078221;28;20119;-68
2023/10/10 07:07:58;;;;;;;31.13;14.48;;;;;;;12.65;100.00;101666.44;5068239;28;20051;-68
2023/10/10 07:10:33;;;;;;;26.15;14.15;;;;;;;12.79;100.00;101667.69;5078715;28;20073;-68
2023/10/10 07:13:00;;;;;;;27.52;13.20;;;;;;;12.96;100.00;101672.09;5065743;28;20517;-68
2023/10/10 07:15:26;;;;;;;27.42;12.75;;;;;;;13.21;100.00;101659.25;5065196;28;20036;-68
2023/10/10 07:18:04;;;;;;;31.38;13.85;;;;;;;13.40;100.00;101664.28;5064317;28;20039;-68
2023/10/10 07:23:20;;;;;;;25.20;12.35;;;;;;;13.58;100.00;101661.66;5080069;28;20050;-68
2023/10/10 07:25:58;;;;;;;27.92;11.95;;;;;;;13.64;100.00;101660.22;5049903;28;20047;-68
2023/10/10 07:28:26;;;;;;;24.65;11.95;;;;;;;13.80;100.00;101654.25;5065869;28;20032;-68
2023/10/10 07:30:52;;;;;;;24.88;14.07;;;;;;;13.83;100.00;101659.16;5081891;28;20044;-68
2023/10/10 07:33:22;;;;;;;28.77;14.98;;;;;;;13.88;100.00;101659.50;5049152;28;20043;-68
2023/10/10 07:35:53;;;;;;;25.70;12.02;;;;;;;13.97;100.00;101652.53;5082355;28;20055;-68
2023/10/10 07:38:28;;;;;;;30.38;12.30;;;;;;;14.15;100.00;101661.06;5080824;28;20059;-68
2023/10/10 07:40:54;;;;;;;31.90;11.43;;;;;;;14.45;100.00;101658.00;5063676;28;20139;-68
2023/10/10 07:43:27;;;;;;;24.73;12.05;;;;;;;14.76;100.00;101647.81;5065285;28;20032;-68
2023/10/10 07:45:54;;;;;;;22.58;11.07;;;;;;;14.98;100.00;101660.22;5082243;28;20035;-68
2023/10/10 07:48:39;;;;;;;18.48;8.82;;;;;;;15.32;100.00;101653.97;5065864;28;20059;-68
2023/10/10 07:51:08;;;;;;;26.33;11.38;;;;;;;15.62;100.00;101648.19;5081357;28;20754;-69
2023/10/10 07:53:43;;;;;;;21.85;11.13;;;;;;;15.86;98.58;101655.97;5080820;28;20036;-68
2023/10/10 07:56:09;;;;;;;21.80;9.57;;;;;;;16.13;97.05;101648.66;5064174;28;20024;-69
2023/10/10 07:58:43;;;;;;;22.45;10.18;;;;;;;16.44;94.45;101647.78;5052606;28;20458;-69
2023/10/10 08:01:16;;;;;;;23.15;9.23;;;;;;;16.70;94.29;101635.16;5078478;28;20043;-68
2023/10/10 08:03:44;;;;;;;22.67;10.38;;;;;;;16.81;92.41;101643.59;5046471;28;20127;-68
2023/10/10 08:06:11;;;;;;;18.65;9.23;;;;;;;17.01;92.54;101633.44;5080750;28;20031;-68
2023/10/10 08:08:37;;;;;;;20.25;9.15;;;;;;;17.07;91.22;101633.56;5080528;28;20126;-68
2023/10/10 08:11:12;;;;;;;25.95;9.40;;;;;;;17.05;89.61;101629.50;5079559;28;20040;-68
2023/10/10 08:13:48;;;;;;;22.63;9.63;;;;;;;17.10;89.77;101635.84;5062460;28;20040;-68
2023/10/10 08:16:19;;;;;;;21.30;9.10;;;;;;;17.26;90.94;101627.00;5081831;28;20032;-68
2023/10/10 08:21:12;;;;;;;18.42;7.43;;;;;;;17.69;89.06;101634.22;5065901;28;21300;-68
2023/10/10 08:23:48;;;;;;;21.63;8.45;;;;;;;17.93;86.76;101633.09;5079018;28;20040;-68
2023/10/10 08:26:17;;;;;;;23.42;7.85;;;;;;;18.14;84.12;101627.09;5081977;28;20035;-68
2023/10/10 08:28:45;;;;;;;22.45;8.75;;;;;;;18.23;84.19;101627.78;5063744;28;20045;-68
2023/10/10 08:31:11;;;;;;;20.75;7.80;;;;;;;18.28;82.62;101623.59;5079273;28;20520;-68
2023/10/10 08:33:36;;;;;;;22.48;7.97;;;;;;;18.30;81.69;101626.03;5063583;28;20127;-68
2023/10/10 08:36:02;;;;;;;20.90;8.68;;;;;;;18.60;81.54;101618.03;5064179;28;20085;-68
2023/10/10 08:38:27;;;;;;;22.30;8.40;;;;;;;18.50;79.65;101615.72;5082209;28;20123;-68
2023/10/10 08:40:57;;;;;;;21.98;7.75;;;;;;;18.55;79.92;101615.94;5067772;28;20046;-68
2023/10/10 08:43:28;;;;;;;22.67;8.20;;;;;;;18.53;80.65;101617.94;5080576;28;20047;-68
2023/10/10 08:45:56;;;;;;;23.20;7.15;;;;;;;18.41;81.43;101629.97;5061066;28;20020;-67
2023/10/10 08:48:26;;;;;;;13.98;7.22;;;;;;;18.23;81.86;101619.91;5060379;28;20444;-68
2023/10/10 08:50:55;;;;;;;17.33;7.13;;;;;;;18.05;82.76;101622.97;5079554;28;20062;-67
2023/10/10 08:53:22;;;;;;;20.08;7.18;;;;;;;18.15;83.78;101626.06;5061289;28;20526;-69
2023/10/10 08:55:56;;;;;;;21.83;7.20;;;;;;;18.06;81.71;101624.56;5080933;28;20066;-68
2023/10/10 08:58:22;;;;;;;14.27;7.07;;;;;;;18.09;82.39;101625.00;5078195;28;20166;-68
2023/10/10 09:00:48;;;;;;;20.35;7.32;;;;;;;18.07;83.24;101631.44;5078750;28;20047;-68
2023/10/10 09:03:14;;;;;;;18.90;6.53;;;;;;;17.95;83.52;101625.88;5080347;28;20037;-68
2023/10/10 09:05:40;;;;;;;18.70;7.45;;;;;;;17.90;83.42;101636.09;5082005;28;20028;-68
2023/10/10 09:08:14;;;;;;;17.58;6.93;;;;;;;17.86;85.31;101633.03;5082712;28;20040;-69
2023/10/10 09:10:40;;;;;;;20.55;6.78;;;;;;;17.90;86.16;101636.09;5081877;28;20152;-68
2023/10/10 09:13:07;;;;;;;15.32;6.78;;;;;;;17.95;86.36;101625.88;5051229;28;20178;-69
2023/10/10 09:15:36;;;;;;;16.05;6.40;;;;;;;17.95;86.48;101623.25;5069527;28;20068;-68
2023/10/10 09:18:22;;;;;;;24.63;6.03;;;;;;;18.04;86.39;101630.00;5081372;28;20444;-69
2023/10/10 09:20:48;;;;;;;18.60;6.05;;;;;;;18.19;84.59;101622.06;5082860;28;20398;-68
2023/10/10 09:23:25;;;;;;;18.67;6.30;;;;;;;18.22;84.59;101619.09;5049670;28;20054;-68
2023/10/10 09:26:29;;;;;;;14.40;5.80;;;;;;;18.31;83.76;101627.66;5048655;28;20551;-68
2023/10/10 09:29:03;;;;;;;13.48;6.03;;;;;;;18.46;78.11;101617.09;5064975;28;20050;-68
2023/10/10 09:31:31;;;;;;;16.27;5.78;;;;;;;18.60;80.50;101618.81;5047226;28;20140;-68
2023/10/10 09:34:06;;;;;;;14.32;5.25;;;;;;;18.62;79.68;101619.44;5047873;28;20044;-68
2023/10/10 09:36:38;;;;;;;16.08;5.00;;;;;;;18.71;78.75;101625.38;5081022;28;20027;-68
2023/10/10 09:39:26;;;;;;;10.43;4.82;;;;;;;18.86;77.32;101623.50;5046248;28;20126;-68
2023/10/10 09:44:30;;;;;;;17.88;5.53;;;;;;;19.02;76.76;101632.09;5080635;28;20521;-68
2023/10/10 09:49:44;;;;;;;10.75;4.25;;;;;;;18.93;75.49;101630.63;5085209;28;20049;-69
2023/10/10 09:55:53;;;;;;;9.85;4.43;;;;;;;19.06;73.78;101625.47;5072067;28;20036;-68
2023/10/10 10:00:46;;;;;;;12.07;4.60;;;;;;;19.22;72.81;101625.16;5083482;28;19923;-68
2023/10/10 10:03:31;;;;;;;11.68;4.30;;;;;;;19.17;73.40;101624.13;5082668;28;20028;-68
2023/10/10 10:09:17;;;;;;;10.02;4.53;;;;;;;19.17;73.51;101614.41;5084598;28;20127;-69
2023/10/10 10:12:30;;;;;;;15.32;5.18;;;;;;;19.24;72.83;101607.38;5071284;28;20031;-69
2023/10/10 10:15:28;;;;;;;9.45;4.75;;;;;;;19.43;70.17;101605.06;5068391;28;20043;-68
2023/10/10 10:18:12;;;;;;;12.57;4.45;;;;;;;19.49;71.79;101600.84;5067833;28;20032;-69
2023/10/10 10:23:25;;;;;;;10.52;5.35;;;;;;;19.53;70.55;101596.78;5066305;28;20036;-68
2023/10/10 10:26:04;;;;;;;13.45;4.60;;;;;;;19.63;71.96;101598.06;5069558;28;20035;-68
2023/10/10 10:28:35;;;;;;;13.70;5.45;;;;;;;19.59;68.97;101590.75;5068398;28;20052;-69
2023/10/10 10:31:16;;;;;;;9.30;4.78;;;;;;;19.51;70.84;101601.44;5067059;28;20490;-69
2023/10/10 10:34:00;;;;;;;11.43;4.55;;;;;;;19.55;72.45;101602.66;5082541;28;20138;-69
2023/10/10 10:36:28;;;;;;;10.00;5.00;;;;;;;19.60;71.91;101598.44;5071262;28;20080;-68
2023/10/10 10:41:42;;;;;;;17.00;6.30;;;;;;;19.76;70.25;101602.59;5085070;28;20039;-69
2023/10/10 10:44:09;;;;;;;14.18;4.82;;;;;;;19.95;68.26;101601.03;5081832;28;20135;-68
2023/10/10 10:46:40;;;;;;;12.90;4.47;;;;;;;19.84;68.18;101604.25;5072148;28;20035;-69
2023/10/10 10:49:12;;;;;;;8.63;3.65;;;;;;;19.81;68.76;101594.09;5083198;28;20171;-68
2023/10/10 10:51:44;;;;;;;14.80;5.15;;;;;;;19.90;68.02;101590.28;5079135;28;20159;-69
2023/10/10 10:57:06;;;;;;;11.77;5.80;;;;;;;20.03;67.84;101592.13;5057125;28;20051;-69
2023/10/10 10:59:38;;;;;;;13.70;5.13;;;;;;;20.11;68.20;101580.59;5066380;28;20052;-69
2023/10/10 11:02:15;;;;;;;10.10;4.22;;;;;;;20.30;67.65;101585.06;5085254;28;20119;-69
2023/10/10 11:04:48;;;;;;;11.07;4.18;;;;;;;20.39;66.71;101577.78;5068303;28;20040;-68
2023/10/10 11:07:26;;;;;;;;;;;;;;;20.49;66.43;101580.00;5086671;28;20624;-69
2023/10/10 11:10:06;;;;;;;14.73;4.78;;;;;;;20.46;64.86;101580.44;5072140;28;19923;-69
2023/10/10 11:12:33;;;;;;;14.57;4.88;;;;;;;20.41;64.80;101573.94;5065296;28;20035;-69
2023/10/10 11:15:08;;;;;;;10.77;4.20;;;;;;;20.43;64.72;101573.75;5081870;28;20024;-69
2023/10/10 11:17:38;;;;;;;10.38;4.30;;;;;;;20.43;64.56;101569.28;5082478;28;20040;-69
2023/10/10 11:20:26;;;;;;;9.35;4.03;;;;;;;20.46;62.91;101568.06;5084373;28;20502;-69
2023/10/10 11:22:55;;;;;;;7.28;4.10;;;;;;;20.63;62.50;101554.53;5065134;28;20082;-68
2023/10/10 11:25:29;;;;;;;13.25;4.38;;;;;;;20.69;62.33;101556.34;5080721;22;21362;-68
2023/10/10 11:28:03;;;;;;;10.43;4.15;;;;;;;20.75;62.67;101548.41;5061514;28;20075;-67
2023/10/10 11:30:30;;;;;;;13.63;5.07;;;;;;;20.87;61.18;101550.41;5064024;28;20111;-68
2023/10/10 11:35:41;;;;;;;8.95;4.28;;;;;;;21.10;59.22;101545.50;5082777;28;20145;-67
2023/10/10 11:38:09;;;;;;;14.00;4.53;;;;;;;20.93;60.66;101547.78;5082036;28;20444;-67
2023/10/10 11:40:36;;;;;;;8.80;4.60;;;;;;;21.00;61.18;101545.94;5078489;28;20397;-67
2023/10/10 11:43:11;;;;;;;15.98;5.07;;;;;;;21.12;61.81;101542.66;5079466;28;20544;-67
2023/10/10 11:45:41;;;;;;;8.25;3.67;;;;;;;21.14;62.04;101536.16;5065810;28;20032;-67
2023/10/10 11:48:14;;;;;;;9.63;4.93;;;;;;;21.15;62.72;101543.06;5065858;28;20036;-68
2023/10/10 11:50:46;;;;;;;14.25;4.60;;;;;;;21.38;60.46;101533.84;5049624;28;20274;-67
2023/10/10 11:53:14;;;;;;;12.30;4.43;;;;;;;21.37;60.19;101534.84;5083835;28;20117;-67
2023/10/10 11:55:42;;;;;;;13.98;4.72;;;;;;;21.34;60.84;101537.88;5080361;28;20679;-67
2023/10/10 11:58:08;;;;;;;8.43;3.70;;;;;;;21.46;60.96;101530.19;5066551;28;20051;-67
2023/10/10 12:01:47;;;;;;;15.18;3.97;;;;;;;21.30;60.55;101531.41;5065286;28;20036;-67
2023/10/10 12:06:00;;;;;;;10.10;4.63;;;;;;;21.35;61.85;101515.78;5084321;28;20031;-68
2023/10/10 12:08:26;;;;;;;9.45;4.07;;;;;;;21.36;61.56;101522.66;5080420;28;20035;-68
2023/10/10 12:11:02;;;;;;;9.73;4.45;;;;;;;21.53;62.05;101502.72;5064494;28;20077;-67
2023/10/10 12:15:57;;;;;;;14.90;4.82;;;;;;;21.74;60.20;101503.41;5080367;28;20048;-67
2023/10/10 12:18:30;;;;;;;13.82;4.93;;;;;;;21.77;59.61;101500.34;5081839;28;20056;-68
2023/10/10 12:20:59;;;;;;;11.93;4.93;;;;;;;21.76;59.64;101494.25;5084194;28;20443;-67
2023/10/10 12:23:25;;;;;;;13.07;4.75;;;;;;;21.80;59.33;101499.13;5081138;28;20063;-67
2023/10/10 12:25:54;;;;;;;15.52;4.40;;;;;;;21.77;59.32;101497.69;5065670;28;20048;-68
2023/10/10 12:28:20;;;;;;;17.45;4.43;;;;;;;21.91;60.57;101504.50;5061927;28;20066;-67
2023/10/10 12:30:46;;;;;;;15.70;4.47;;;;;;;21.89;58.24;101498.63;5080121;28;20464;-67
2023/10/10 12:33:12;;;;;;;15.90;4.20;;;;;;;21.82;58.03;101495.25;5081864;28;20040;-68
2023/10/10 12:35:46;;;;;;;12.45;4.22;;;;;;;21.75;57.72;101499.75;5062165;28;20451;-67
2023/10/10 12:38:20;;;;;;;11.88;4.93;;;;;;;21.84;57.15;101495.03;5065007;28;20498;-67
2023/10/10 12:40:50;;;;;;;15.18;4.55;;;;;;;21.78;58.19;101494.06;5063552;28;20043;-67
2023/10/10 12:43:19;;;;;;;17.98;5.68;;;;;;;21.86;59.38;101498.25;5078516;28;20043;-67
2023/10/10 12:45:45;;;;;;;14.77;4.75;;;;;;;21.95;58.82;101486.41;5046754;28;20035;-67
2023/10/10 12:48:20;;;;;;;13.40;4.80;;;;;;;22.16;58.47;101482.59;5064327;28;20039;-67
2023/10/10 12:50:50;;;;;;;11.68;4.88;;;;;;;22.11;59.16;101477.13;5049578;28;20036;-67
2023/10/10 12:53:19;;;;;;;14.95;4.97;;;;;;;22.04;59.61;101482.47;5078512;28;20513;-67
2023/10/10 12:55:49;;;;;;;13.73;4.80;;;;;;;22.09;58.12;101479.19;5082716;28;20394;-67
2023/10/10 12:58:20;;;;;;;14.05;4.70;;;;;;;22.07;57.71;101468.03;5065570;28;20028;-68
2023/10/10 13:00:50;;;;;;;14.20;4.50;;;;;;;22.17;57.94;101469.16;5082596;28;20040;-66
2023/10/10 13:03:22;;;;;;;12.68;4.65;;;;;;;22.19;54.92;101471.59;5078895;28;20028;-67
2023/10/10 13:05:51;;;;;;;12.30;5.33;;;;;;;22.29;55.24;101471.13;5064766;28;20137;-67
2023/10/10 13:08:19;;;;;;;15.88;4.93;;;;;;;22.27;56.28;101475.81;5064632;28;20687;-68
2023/10/10 13:10:46;;;;;;;10.85;4.95;;;;;;;22.30;56.27;101473.56;5062140;28;20424;-67
2023/10/10 13:13:26;;;;;;;11.52;4.55;;;;;;;22.17;57.75;101471.00;5064919;28;20056;-68
2023/10/10 13:16:07;;;;;;;9.27;4.65;;;;;;;22.37;57.29;101467.41;5066057;28;20186;-67
2023/10/10 13:18:34;;;;;;;10.90;5.20;;;;;;;22.42;57.03;101470.19;5079151;28;20080;-68
2023/10/10 13:21:00;;;;;;;14.55;4.78;;;;;;;22.53;56.39;101470.28;5068507;28;20048;-67
2023/10/10 13:23:25;;;;;;;16.38;4.75;;;;;;;22.49;54.98;101463.81;5069922;28;20035;-67
2023/10/10 13:25:51;;;;;;;10.93;4.43;;;;;;;22.72;54.46;101452.56;5052050;28;20595;-67
2023/10/10 13:28:17;;;;;;;13.65;5.32;;;;;;;22.67;54.94;101463.00;5070918;28;20047;-68
2023/10/10 13:30:46;;;;;;;12.65;5.07;;;;;;;22.76;54.35;101452.94;5088324;28;20416;-67
2023/10/10 13:33:20;;;;;;;11.77;4.80;;;;;;;22.74;55.23;101463.72;5066777;28;20513;-67
2023/10/10 13:35:48;;;;;;;13.98;5.18;;;;;;;22.60;55.56;101464.91;5087636;28;20024;-67
2023/10/10 13:38:14;;;;;;;10.02;5.00;;;;;;;22.68;56.89;101450.63;5068351;28;20048;-67
2023/10/10 13:40:48;;;;;;;17.35;5.60;;;;;;;22.64;55.18;101462.63;5083132;28;20040;-67
2023/10/10 13:43:18;;;;;;;13.13;5.18;;;;;;;22.69;54.21;101452.22;5074624;28;20132;-67
2023/10/10 13:45:45;;;;;;;14.98;5.72;;;;;;;22.84;55.00;101451.84;5068037;28;20040;-67
2023/10/10 13:48:13;;;;;;;10.05;4.50;;;;;;;22.70;55.24;101453.84;5083068;28;20055;-66
2023/10/10 13:50:45;;;;;;;12.20;5.03;;;;;;;22.85;56.07;101448.16;5083217;28;20180;-67
2023/10/10 13:53:15;;;;;;;12.00;3.92;;;;;;;22.76;56.85;101444.22;5065842;28;20139;-67
2023/10/10 13:55:42;;;;;;;8.13;3.80;;;;;;;22.79;56.00;101451.69;5065605;28;20123;-67
2023/10/10 13:58:12;;;;;;;12.18;4.35;;;;;;;22.83;55.63;101447.56;5083037;28;20436;-67
2023/10/10 14:00:52;;;;;;;11.15;4.75;;;;;;;22.74;56.51;101450.53;5084682;28;20167;-67
2023/10/10 14:03:35;;;;;;;10.35;4.22;;;;;;;22.79;55.92;101451.69;5064460;28;20102;-67
2023/10/10 14:06:03;;;;;;;14.45;4.80;;;;;;;22.88;55.46;101453.81;5085427;28;20036;-66
2023/10/10 14:08:30;;;;;;;13.68;4.32;;;;;;;23.00;55.18;101451.25;5050540;28;20043;-67
2023/10/10 14:10:59;;;;;;;12.45;3.65;;;;;;;22.88;55.61;101445.88;5084770;28;20450;-66
2023/10/10 14:13:26;;;;;;;13.80;4.53;;;;;;;22.72;56.16;101443.84;5082440;28;20437;-67